Time;durP1;ratioP1;P1;durP2;ratioP2;P2;SDS_P1;SDS_P2;PMS_P1;PMS_P2;Temp;Humidity;BMP_temperature;BMP_pressure;BME280_temperature;BME280_humidity;BME280_pressure;Samples;Min_cycle;Max_cycle;Signal;HPM_P1;HPM_P2
2022/03/10 00:01:14;;;;;;;2.88;1.00;;;19.00;70.00;;;;;;4946255;28;95703;-63
2022/03/10 00:03:44;;;;;;;1.02;0.70;;;19.00;69.90;;;;;;4998308;28;96643;-63
2022/03/10 00:06:17;;;;;;;2.50;1.10;;;19.10;69.80;;;;;;4967718;28;97304;-64
2022/03/10 00:08:47;;;;;;;0.77;0.57;;;19.10;69.60;;;;;;4966244;28;95968;-62
2022/03/10 00:11:17;;;;;;;3.00;1.10;;;19.20;69.40;;;;;;4967826;28;95611;-61
2022/03/10 00:13:48;;;;;;;2.65;0.73;;;19.20;69.30;;;;;;4965944;28;95861;-63
2022/03/10 00:16:19;;;;;;;2.05;0.75;;;19.30;69.20;;;;;;4958908;28;96273;-62
2022/03/10 00:18:50;;;;;;;0.93;0.52;;;19.40;69.10;;;;;;4967880;28;95745;-59
2022/03/10 00:21:21;;;;;;;4.05;1.08;;;19.40;68.90;;;;;;4969346;28;95842;-61
2022/03/10 00:23:52;;;;;;;3.22;1.30;;;19.40;68.00;;;;;;4968087;28;96550;-56
2022/03/10 00:26:23;;;;;;;15.95;1.48;;;19.30;68.10;;;;;;4980756;28;95433;-61
2022/03/10 00:28:55;;;;;;;5.13;1.30;;;19.20;68.30;;;;;;4968078;28;95851;-69
2022/03/10 00:31:26;;;;;;;3.33;0.85;;;19.20;68.00;;;;;;4958639;28;95370;-63
2022/03/10 00:33:57;;;;;;;4.82;1.00;;;19.20;68.10;;;;;;4967744;28;96530;-62
2022/03/10 00:36:28;;;;;;;6.85;1.20;;;19.20;67.70;;;;;;4959285;28;96022;-59
2022/03/10 00:39:00;;;;;;;2.83;0.95;;;19.20;67.60;;;;;;4967498;28;96036;-62
2022/03/10 00:41:30;;;;;;;8.15;1.48;;;19.20;67.50;;;;;;4968718;28;95589;-66
2022/03/10 00:44:00;;;;;;;6.32;1.20;;;19.20;67.40;;;;;;4967508;28;95944;-62
2022/03/10 00:46:31;;;;;;;;;;;19.20;68.10;;;;;;4960140;28;96779;-64
2022/03/10 00:49:01;;;;;;;2.80;0.85;;;19.30;67.70;;;;;;4968339;28;95706;-60
2022/03/10 00:51:31;;;;;;;4.72;0.95;;;19.30;67.60;;;;;;4969024;28;96343;-64
2022/03/10 00:54:04;;;;;;;5.93;1.67;;;19.40;67.40;;;;;;4973907;28;95884;-64
2022/03/10 00:56:35;;;;;;;;;;;19.30;67.10;;;;;;4963390;28;96926;-63
2022/03/10 00:59:05;;;;;;;4.50;0.90;;;19.40;67.20;;;;;;4969933;28;96316;-64
2022/03/10 01:01:38;;;;;;;1.55;1.05;;;19.40;66.90;;;;;;4951660;28;96234;-64
2022/03/10 01:04:14;;;;;;;3.88;1.23;;;19.40;66.70;;;;;;4947383;28;95990;-63
2022/03/10 01:06:46;;;;;;;4.28;1.00;;;19.40;66.60;;;;;;4948308;28;96208;-63
2022/03/10 01:09:17;;;;;;;5.55;1.20;;;19.40;66.40;;;;;;4948666;28;95804;-63
2022/03/10 01:11:48;;;;;;;2.47;0.85;;;19.40;66.40;;;;;;4948448;28;95814;-64
2022/03/10 01:14:19;;;;;;;5.53;0.85;;;19.50;66.00;;;;;;4948532;28;96061;-63
2022/03/10 01:16:51;;;;;;;2.33;0.95;;;19.50;66.20;;;;;;4965836;28;98722;-63
2022/03/10 01:19:23;;;;;;;;;;;19.50;65.90;;;;;;4967689;28;95852;-63
2022/03/10 01:21:53;;;;;;;2.73;0.90;;;19.50;66.00;;;;;;4968394;28;95789;-64
2022/03/10 01:24:24;;;;;;;2.78;0.80;;;19.50;65.90;;;;;;4965873;28;95723;-64
2022/03/10 01:26:55;;;;;;;4.25;1.00;;;19.50;65.70;;;;;;4967505;28;95824;-63
2022/03/10 01:29:26;;;;;;;3.08;1.02;;;19.60;65.50;;;;;;4967718;28;96177;-63
2022/03/10 01:31:57;;;;;;;3.20;1.20;;;19.60;65.20;;;;;;4960002;28;95515;-62
2022/03/10 01:34:28;;;;;;;1.90;0.85;;;19.60;65.00;;;;;;4961647;28;96093;-64
2022/03/10 01:36:59;;;;;;;2.25;0.80;;;19.70;64.90;;;;;;4957699;28;96554;-63
2022/03/10 01:39:33;;;;;;;3.58;1.10;;;19.70;64.80;;;;;;4966843;28;96104;-64
2022/03/10 01:42:06;;;;;;;1.65;0.93;;;19.60;64.90;;;;;;4965042;28;95880;-63
2022/03/10 01:44:38;;;;;;;5.63;1.05;;;19.70;64.70;;;;;;4967985;28;98576;-63
2022/03/10 01:47:10;;;;;;;2.35;1.02;;;19.70;64.60;;;;;;4961306;28;96870;-65
2022/03/10 01:49:40;;;;;;;2.83;0.80;;;19.70;64.60;;;;;;4957887;28;95783;-66
2022/03/10 01:52:11;;;;;;;3.03;0.77;;;19.70;64.60;;;;;;4964547;28;95711;-64
2022/03/10 01:54:43;;;;;;;4.55;1.10;;;19.70;64.70;;;;;;4966811;28;95849;-65
2022/03/10 01:57:14;;;;;;;;;;;19.70;64.70;;;;;;4967599;28;95929;-62
2022/03/10 01:59:45;;;;;;;5.18;1.10;;;19.70;64.80;;;;;;4966108;28;95155;-63
2022/03/10 02:02:17;;;;;;;3.30;0.93;;;19.80;65.00;;;;;;4960021;28;95877;-62
2022/03/10 02:04:48;;;;;;;3.58;0.80;;;19.80;64.90;;;;;;4967006;28;96681;-63
2022/03/10 02:10:16;;;;;;;2.53;0.95;;;19.90;64.90;;;;;;4966454;28;98536;-63
2022/03/10 02:12:53;;;;;;;6.18;1.05;;;19.90;64.70;;;;;;4966470;28;95477;-64
2022/03/10 02:18:21;;;;;;;5.07;1.10;;;20.00;64.60;;;;;;4965724;28;102257;-66
2022/03/10 02:20:52;;;;;;;3.05;1.00;;;20.10;64.40;;;;;;4966274;28;95930;-63
2022/03/10 02:23:25;;;;;;;5.70;1.45;;;20.10;64.30;;;;;;4966125;28;95896;-64
2022/03/10 02:26:01;;;;;;;2.03;0.88;;;20.10;64.30;;;;;;4961863;28;95934;-64
2022/03/10 02:28:33;;;;;;;4.78;0.80;;;20.10;64.40;;;;;;4964502;28;95424;-62
2022/03/10 02:31:03;;;;;;;3.70;0.90;;;20.10;64.00;;;;;;4958973;28;96882;-62
2022/03/10 02:33:34;;;;;;;3.60;1.10;;;20.20;64.10;;;;;;4967158;28;95807;-64
2022/03/10 02:36:06;;;;;;;2.55;1.13;;;20.20;64.00;;;;;;4970611;28;98466;-63
2022/03/10 02:38:37;;;;;;;3.40;1.25;;;20.20;64.00;;;;;;4963596;28;96979;-63
2022/03/10 02:41:07;;;;;;;3.75;1.42;;;20.30;63.80;;;;;;4966252;28;95778;-65
2022/03/10 02:43:38;;;;;;;5.40;1.20;;;20.30;63.80;;;;;;4965202;28;95565;-59
2022/03/10 02:46:09;;;;;;;4.80;1.13;;;20.30;63.70;;;;;;4958128;28;96513;-59
2022/03/10 02:48:40;;;;;;;1.88;1.02;;;20.40;63.50;;;;;;4968670;28;96115;-65
2022/03/10 02:51:10;;;;;;;2.67;1.00;;;20.40;63.10;;;;;;4968572;28;95511;-65
2022/03/10 02:53:40;;;;;;;2.88;0.80;;;20.30;62.50;;;;;;4970533;28;97218;-64
2022/03/10 02:56:10;;;;;;;4.10;1.40;;;20.30;63.00;;;;;;4968678;28;95940;-61
2022/03/10 02:58:41;;;;;;;4.28;1.10;;;20.30;63.10;;;;;;4967706;28;95868;-60
2022/03/10 03:01:12;;;;;;;3.80;1.00;;;20.30;62.80;;;;;;4959762;28;96230;-58
2022/03/10 03:03:45;;;;;;;4.70;1.13;;;20.30;63.00;;;;;;4962758;28;95796;-63
2022/03/10 03:06:16;;;;;;;7.30;1.52;;;20.30;62.90;;;;;;4968666;28;96249;-59
2022/03/10 03:08:47;;;;;;;3.30;1.10;;;20.40;62.60;;;;;;4999373;28;95944;-59
2022/03/10 03:11:18;;;;;;;;;;;20.40;62.80;;;;;;4969702;28;95582;-61
2022/03/10 03:13:49;;;;;;;4.03;1.55;;;20.40;62.20;;;;;;4971200;28;95859;-62
2022/03/10 03:16:19;;;;;;;6.00;1.80;;;20.40;62.50;;;;;;4960064;28;96296;-61
2022/03/10 03:18:51;;;;;;;3.53;1.65;;;20.50;62.60;;;;;;4967517;28;95272;-62
2022/03/10 03:21:23;;;;;;;;;;;20.50;62.50;;;;;;4969352;28;95862;-61
2022/03/10 03:23:55;;;;;;;6.03;1.58;;;20.50;62.60;;;;;;4983451;28;95815;-61
2022/03/10 03:26:26;;;;;;;6.75;2.17;;;20.50;62.50;;;;;;4966232;28;96054;-61
2022/03/10 03:28:58;;;;;;;7.93;1.98;;;20.50;62.30;;;;;;4967803;28;96135;-60
2022/03/10 03:31:28;;;;;;;5.53;1.87;;;20.60;62.20;;;;;;4963748;28;95867;-59
2022/03/10 03:33:59;;;;;;;;;;;20.60;62.10;;;;;;4966075;28;95740;-60
2022/03/10 03:36:30;;;;;;;4.20;1.55;;;20.60;61.50;;;;;;4988660;28;98030;-60
2022/03/10 03:39:00;;;;;;;7.07;1.98;;;20.70;62.20;;;;;;4970316;28;96097;-61
2022/03/10 03:41:31;;;;;;;5.97;1.60;;;20.70;62.30;;;;;;4971558;28;95884;-59
2022/03/10 03:44:02;;;;;;;3.90;1.40;;;20.70;62.20;;;;;;4971719;28;95838;-61
2022/03/10 03:46:33;;;;;;;5.82;1.65;;;20.70;62.00;;;;;;4959914;28;95936;-60
2022/03/10 03:49:09;;;;;;;6.75;1.70;;;20.70;61.90;;;;;;4971057;28;96028;-62
2022/03/10 03:51:40;;;;;;;6.53;1.95;;;20.70;61.90;;;;;;4969943;28;95300;-59
2022/03/10 03:54:11;;;;;;;;;;;20.80;62.10;;;;;;4972036;28;95303;-61
2022/03/10 03:56:42;;;;;;;3.50;1.35;;;20.80;61.80;;;;;;4973092;28;96371;-63
2022/03/10 03:59:13;;;;;;;6.57;1.83;;;20.80;61.90;;;;;;4970574;28;95976;-61
2022/03/10 04:01:45;;;;;;;5.75;1.40;;;20.90;61.80;;;;;;4963148;28;95683;-63
2022/03/10 04:04:19;;;;;;;6.18;1.92;;;20.90;61.60;;;;;;4972264;28;95764;-60
2022/03/10 04:06:50;;;;;;;6.30;2.20;;;20.90;61.40;;;;;;4970868;28;95866;-61
2022/03/10 04:09:20;;;;;;;5.55;1.48;;;20.90;61.00;;;;;;4970481;28;95133;-59
2022/03/10 04:11:52;;;;;;;3.53;1.50;;;21.00;60.60;;;;;;4971556;28;95685;-62
2022/03/10 04:14:23;;;;;;;3.17;1.50;;;21.00;61.70;;;;;;4971749;28;95787;-59
2022/03/10 04:16:54;;;;;;;4.00;1.70;;;21.00;61.00;;;;;;4963314;28;95949;-58
2022/03/10 04:19:25;;;;;;;6.18;1.70;;;21.00;61.10;;;;;;4971181;28;95756;-58
2022/03/10 04:21:55;;;;;;;4.18;1.85;;;21.00;61.20;;;;;;4971101;28;95918;-61
2022/03/10 04:24:26;;;;;;;6.70;1.98;;;21.10;61.60;;;;;;4969274;28;96057;-61
2022/03/10 04:26:57;;;;;;;4.07;1.40;;;21.10;62.50;;;;;;4970273;28;95881;-61
2022/03/10 04:29:29;;;;;;;5.72;1.65;;;21.10;61.80;;;;;;4971199;28;97662;-58
2022/03/10 04:31:59;;;;;;;8.00;1.75;;;21.10;61.80;;;;;;4963845;28;98710;-61
2022/03/10 04:34:31;;;;;;;4.55;1.95;;;21.10;61.50;;;;;;4969055;28;95622;-59
2022/03/10 04:37:03;;;;;;;4.03;1.75;;;21.20;61.80;;;;;;4965398;28;95884;-61
2022/03/10 04:39:34;;;;;;;7.07;1.63;;;21.20;61.50;;;;;;4985722;28;96081;-60
2022/03/10 04:42:05;;;;;;;5.60;1.67;;;21.20;61.80;;;;;;4968820;28;95765;-60
2022/03/10 04:44:38;;;;;;;5.65;1.30;;;21.20;61.70;;;;;;4970099;28;95884;-64
2022/03/10 04:47:09;;;;;;;7.90;1.40;;;21.30;60.40;;;;;;4962488;28;98479;-61
2022/03/10 04:49:39;;;;;;;3.38;1.55;;;21.30;61.10;;;;;;4970199;28;95384;-59
2022/03/10 04:52:10;;;;;;;6.20;1.83;;;21.30;61.20;;;;;;4971307;28;98103;-61
2022/03/10 04:54:40;;;;;;;4.25;1.27;;;21.30;61.30;;;;;;4985904;28;95647;-62
2022/03/10 04:57:10;;;;;;;7.70;2.05;;;21.30;61.40;;;;;;4968751;28;95950;-63
2022/03/10 04:59:40;;;;;;;7.07;1.92;;;21.30;61.30;;;;;;4966322;28;95327;-61
2022/03/10 05:02:11;;;;;;;4.55;1.33;;;21.30;61.40;;;;;;4963318;28;95398;-60
2022/03/10 05:04:43;;;;;;;8.15;1.80;;;21.30;60.90;;;;;;4970675;28;95251;-61
2022/03/10 05:07:13;;;;;;;4.38;1.45;;;21.30;61.60;;;;;;4967389;28;96451;-63
2022/03/10 05:09:44;;;;;;;2.93;1.57;;;21.30;61.50;;;;;;4970583;28;95664;-61
2022/03/10 05:12:15;;;;;;;10.02;1.85;;;21.30;61.50;;;;;;4969623;28;95711;-62
2022/03/10 05:14:46;;;;;;;7.32;1.98;;;21.40;61.30;;;;;;4968780;28;96108;-61
2022/03/10 05:17:23;;;;;;;7.50;1.63;;;21.40;61.50;;;;;;4962112;28;96437;-63
2022/03/10 05:19:55;;;;;;;9.95;2.25;;;21.40;61.60;;;;;;4970008;28;95937;-61
2022/03/10 05:22:25;;;;;;;6.65;1.30;;;21.40;61.30;;;;;;4970011;28;95285;-61
2022/03/10 05:24:55;;;;;;;5.13;1.83;;;21.40;61.40;;;;;;4970387;28;98101;-61
2022/03/10 05:27:26;;;;;;;;;;;21.50;61.10;;;;;;4970625;28;95903;-65
2022/03/10 05:29:56;;;;;;;3.63;1.33;;;21.50;61.60;;;;;;4962167;28;96412;-61
2022/03/10 05:32:26;;;;;;;6.55;1.83;;;21.50;61.10;;;;;;4962336;28;98526;-62
2022/03/10 05:35:00;;;;;;;6.93;1.95;;;21.50;60.20;;;;;;4965429;28;96531;-58
2022/03/10 05:37:38;;;;;;;6.07;1.90;;;21.50;61.10;;;;;;4966930;28;95992;-60
2022/03/10 05:40:15;;;;;;;5.63;1.88;;;21.50;60.40;;;;;;4969057;28;96000;-60
2022/03/10 05:42:47;;;;;;;5.32;1.55;;;21.50;60.90;;;;;;4968792;28;95876;-60
2022/03/10 05:45:20;;;;;;;5.57;1.67;;;21.60;60.60;;;;;;4963253;28;95875;-57
2022/03/10 05:47:53;;;;;;;4.25;1.27;;;21.50;60.50;;;;;;4967979;28;95870;-60
2022/03/10 05:50:26;;;;;;;5.25;1.70;;;21.60;60.50;;;;;;4969105;28;95833;-63
2022/03/10 05:52:57;;;;;;;4.47;1.48;;;21.50;60.20;;;;;;4969618;28;95850;-61
2022/03/10 05:55:27;;;;;;;7.38;2.08;;;21.50;60.20;;;;;;4970362;28;95798;-64
2022/03/10 05:57:57;;;;;;;5.43;1.90;;;21.50;60.70;;;;;;4969105;28;95923;-61
2022/03/10 06:00:27;;;;;;;6.22;1.42;;;21.50;60.50;;;;;;4957414;28;95409;-61
2022/03/10 06:03:01;;;;;;;6.88;1.38;;;21.50;61.00;;;;;;4968970;28;95658;-63
2022/03/10 06:05:32;;;;;;;4.13;1.60;;;21.50;60.80;;;;;;4968671;28;95422;-61
2022/03/10 06:08:04;;;;;;;7.30;2.53;;;21.50;60.90;;;;;;4968999;28;95837;-63
2022/03/10 06:10:35;;;;;;;4.53;1.30;;;21.50;60.60;;;;;;4969029;28;95926;-63
2022/03/10 06:13:06;;;;;;;6.60;1.73;;;21.60;60.40;;;;;;4970052;28;95615;-63
2022/03/10 06:15:37;;;;;;;6.55;1.63;;;21.60;60.20;;;;;;4961913;28;95437;-63
2022/03/10 06:18:08;;;;;;;3.83;1.40;;;21.60;60.60;;;;;;4968834;28;95840;-63
2022/03/10 06:20:39;;;;;;;;;;;21.60;59.40;;;;;;4968052;28;96071;-61
2022/03/10 06:23:09;;;;;;;6.82;1.65;;;21.60;60.00;;;;;;4960805;28;96051;-61
2022/03/10 06:25:40;;;;;;;6.75;1.83;;;21.60;60.10;;;;;;4968839;28;95478;-63
2022/03/10 06:28:11;;;;;;;5.40;1.63;;;21.60;61.00;;;;;;4966248;28;95911;-61
2022/03/10 06:30:41;;;;;;;3.40;1.35;;;21.60;60.20;;;;;;4961558;28;95708;-62
2022/03/10 06:33:12;;;;;;;7.10;1.60;;;21.60;60.40;;;;;;4967962;28;96060;-61
2022/03/10 06:35:44;;;;;;;3.47;1.52;;;21.60;60.40;;;;;;4956777;28;96064;-63
2022/03/10 06:38:14;;;;;;;5.00;1.50;;;21.60;60.20;;;;;;4962983;28;96432;-62
2022/03/10 06:40:46;;;;;;;2.50;1.23;;;21.60;60.00;;;;;;4969845;28;95802;-61
2022/03/10 06:43:19;;;;;;;;;;;21.70;59.60;;;;;;4968304;28;95395;-62
2022/03/10 06:45:50;;;;;;;6.70;1.48;;;21.60;59.70;;;;;;4963441;28;95797;-61
2022/03/10 06:48:21;;;;;;;3.20;1.45;;;21.60;60.10;;;;;;4969501;28;95941;-62
2022/03/10 06:50:51;;;;;;;4.00;1.30;;;21.60;59.90;;;;;;4968928;28;95829;-63
2022/03/10 06:53:21;;;;;;;4.65;1.27;;;21.60;59.20;;;;;;4967052;28;95808;-63
2022/03/10 06:55:51;;;;;;;3.05;1.15;;;21.60;59.50;;;;;;4968677;28;95491;-61
2022/03/10 06:58:21;;;;;;;7.65;1.75;;;21.60;59.20;;;;;;4969425;28;95844;-66
2022/03/10 07:00:51;;;;;;;7.53;1.75;;;21.60;59.40;;;;;;4959064;28;95807;-62
2022/03/10 07:03:29;;;;;;;6.18;1.60;;;21.50;58.70;;;;;;4947362;28;95615;-61
2022/03/10 07:05:59;;;;;;;4.38;1.42;;;21.50;59.30;;;;;;4946434;28;95817;-65
2022/03/10 07:08:32;;;;;;;4.68;1.38;;;21.50;59.60;;;;;;4948995;28;95844;-61
2022/03/10 07:11:03;;;;;;;5.43;1.77;;;21.50;58.90;;;;;;4978380;28;95482;-64
2022/03/10 07:13:35;;;;;;;7.03;1.67;;;21.50;59.40;;;;;;4948450;28;95726;-61
2022/03/10 07:16:06;;;;;;;7.60;1.65;;;21.50;59.10;;;;;;4948748;28;95865;-61
2022/03/10 07:18:37;;;;;;;5.30;1.88;;;21.50;59.40;;;;;;4967829;28;96414;-60
2022/03/10 07:21:08;;;;;;;9.43;1.88;;;21.50;59.90;;;;;;4967081;28;96309;-63
2022/03/10 07:23:39;;;;;;;6.18;1.60;;;21.40;59.50;;;;;;5000170;28;95223;-61
2022/03/10 07:26:12;;;;;;;8.35;1.85;;;21.40;59.20;;;;;;4968351;28;95736;-60
2022/03/10 07:28:44;;;;;;;9.90;2.53;;;21.50;59.30;;;;;;4966020;28;95793;-63
2022/03/10 07:31:15;;;;;;;7.93;1.70;;;21.40;59.50;;;;;;4961390;28;95648;-63
2022/03/10 07:33:46;;;;;;;7.40;1.67;;;21.50;60.00;;;;;;4968823;28;95193;-63
2022/03/10 07:36:22;;;;;;;3.95;1.52;;;21.50;59.70;;;;;;4962854;28;95513;-63
2022/03/10 07:38:52;;;;;;;;;;;21.50;59.90;;;;;;4967310;28;95775;-64
2022/03/10 07:41:22;;;;;;;6.85;1.33;;;21.50;59.40;;;;;;4968964;28;95279;-59
2022/03/10 07:43:52;;;;;;;5.53;1.60;;;21.50;59.20;;;;;;4966171;28;95712;-63
2022/03/10 07:46:23;;;;;;;7.65;2.00;;;21.50;59.90;;;;;;4959307;28;95812;-59
2022/03/10 07:48:54;;;;;;;6.70;1.35;;;21.40;59.10;;;;;;4967518;28;96064;-59
2022/03/10 07:51:26;;;;;;;5.72;1.70;;;21.40;59.40;;;;;;4965991;28;95305;-62
2022/03/10 07:53:56;;;;;;;7.88;1.70;;;21.40;59.60;;;;;;4966403;28;95415;-59
2022/03/10 07:56:26;;;;;;;5.20;1.63;;;21.40;59.10;;;;;;4967796;28;95769;-64
2022/03/10 07:58:56;;;;;;;4.72;1.70;;;21.40;59.90;;;;;;4964944;28;95869;-59
2022/03/10 08:01:27;;;;;;;;;;;21.30;59.70;;;;;;4962144;28;97742;-63
2022/03/10 08:03:58;;;;;;;4.43;1.33;;;21.30;59.40;;;;;;4968424;28;97169;-62
2022/03/10 08:06:28;;;;;;;3.53;1.48;;;21.20;59.80;;;;;;4968000;28;96383;-61
2022/03/10 08:08:58;;;;;;;4.47;1.38;;;21.20;60.00;;;;;;4967164;28;96274;-59
2022/03/10 08:11:29;;;;;;;7.80;1.40;;;21.00;59.60;;;;;;4965960;28;96027;-63
2022/03/10 08:14:00;;;;;;;4.70;1.50;;;21.00;60.30;;;;;;4967072;28;95613;-63
2022/03/10 08:16:31;;;;;;;6.60;1.17;;;21.00;60.60;;;;;;4950122;28;95886;-61
2022/03/10 08:19:02;;;;;;;4.68;1.80;;;21.00;60.90;;;;;;4966766;28;95851;-59
2022/03/10 08:21:33;;;;;;;10.93;1.58;;;20.90;60.70;;;;;;4968013;28;95525;-63
2022/03/10 08:24:04;;;;;;;;;;;20.90;60.60;;;;;;4969585;28;95589;-60
2022/03/10 08:26:34;;;;;;;6.57;1.85;;;20.90;60.60;;;;;;4972634;28;95804;-61
2022/03/10 08:29:05;;;;;;;4.90;1.48;;;20.90;61.10;;;;;;4971110;28;95940;-60
2022/03/10 08:31:37;;;;;;;4.68;1.48;;;20.90;61.20;;;;;;4963309;28;95628;-63
2022/03/10 08:34:08;;;;;;;6.53;1.83;;;20.90;61.20;;;;;;4967950;28;100794;-60
2022/03/10 08:36:39;;;;;;;7.28;1.40;;;20.90;61.60;;;;;;4960461;28;97331;-61
2022/03/10 08:39:10;;;;;;;5.65;1.60;;;20.90;61.80;;;;;;4968055;28;95922;-59
2022/03/10 08:41:40;;;;;;;6.13;2.10;;;20.90;62.00;;;;;;4971201;28;95977;-60
2022/03/10 08:44:12;;;;;;;10.35;2.00;;;20.90;61.90;;;;;;4971414;28;96957;-63
2022/03/10 08:46:44;;;;;;;7.07;1.95;;;20.80;62.50;;;;;;4963668;28;96425;-61
2022/03/10 08:49:16;;;;;;;6.47;2.08;;;20.90;62.50;;;;;;4970220;28;96478;-62
2022/03/10 08:51:49;;;;;;;6.30;1.67;;;20.80;62.60;;;;;;4968866;28;95968;-61
2022/03/10 08:54:22;;;;;;;6.32;1.80;;;20.80;62.70;;;;;;4970473;28;97379;-58
2022/03/10 08:56:52;;;;;;;5.38;1.20;;;20.80;63.10;;;;;;4970827;28;95658;-60
2022/03/10 08:59:25;;;;;;;8.90;1.83;;;20.80;63.00;;;;;;4969259;28;96502;-60
2022/03/10 09:01:57;;;;;;;7.63;2.85;;;20.80;63.30;;;;;;4963085;28;95841;-60
2022/03/10 09:04:29;;;;;;;3.60;1.00;;;20.70;63.50;;;;;;4970612;28;95622;-59
2022/03/10 09:06:59;;;;;;;5.78;1.95;;;20.70;63.50;;;;;;4969044;28;95863;-60
2022/03/10 09:09:29;;;;;;;4.00;1.55;;;20.70;63.70;;;;;;4967651;28;96012;-60
2022/03/10 09:12:01;;;;;;;4.47;1.50;;;20.70;63.70;;;;;;4969556;28;95792;-60
2022/03/10 09:14:36;;;;;;;5.53;2.00;;;20.60;63.80;;;;;;4969890;28;95358;-60
2022/03/10 09:17:06;;;;;;;3.58;1.60;;;20.60;63.90;;;;;;4962586;28;95359;-60
2022/03/10 09:19:39;;;;;;;7.28;1.92;;;20.50;64.30;;;;;;4970400;28;95897;-64
2022/03/10 09:22:09;;;;;;;5.90;1.77;;;20.60;64.00;;;;;;4946265;28;96361;-59
2022/03/10 09:24:40;;;;;;;3.47;1.98;;;20.50;64.10;;;;;;4968468;28;95918;-62
2022/03/10 09:27:11;;;;;;;5.43;1.95;;;20.50;64.30;;;;;;4969157;28;98345;-61
2022/03/10 09:29:42;;;;;;;4.32;1.88;;;20.50;64.60;;;;;;4969471;28;96503;-64
2022/03/10 09:32:13;;;;;;;4.75;1.52;;;20.50;64.30;;;;;;4962996;28;98414;-63
2022/03/10 09:34:44;;;;;;;6.30;1.52;;;20.50;64.50;;;;;;4964105;28;95726;-62
2022/03/10 09:37:15;;;;;;;5.75;1.58;;;20.60;64.30;;;;;;4961750;28;95782;-62
2022/03/10 09:39:45;;;;;;;4.80;2.05;;;20.50;63.70;;;;;;4983502;28;96721;-62
2022/03/10 09:42:18;;;;;;;4.35;1.90;;;20.50;63.60;;;;;;4967245;28;96566;-62
2022/03/10 09:44:50;;;;;;;8.90;1.60;;;20.40;64.20;;;;;;4969338;28;95752;-64
2022/03/10 09:47:21;;;;;;;4.47;1.52;;;20.40;63.90;;;;;;4960722;28;97181;-63
2022/03/10 09:49:54;;;;;;;6.32;1.80;;;20.30;63.90;;;;;;4954192;28;96227;-63
2022/03/10 09:52:26;;;;;;;8.15;2.28;;;20.40;64.20;;;;;;4965488;28;95799;-64
2022/03/10 09:54:56;;;;;;;4.53;1.77;;;20.50;63.80;;;;;;4965486;28;96117;-63
2022/03/10 09:57:26;;;;;;;5.38;1.30;;;20.50;63.70;;;;;;4966309;28;97538;-63
2022/03/10 09:59:59;;;;;;;4.93;1.90;;;20.60;63.60;;;;;;4964141;28;95856;-62
2022/03/10 10:02:32;;;;;;;3.95;1.08;;;20.60;63.50;;;;;;4957011;28;95445;-62
2022/03/10 10:05:22;;;;;;;4.18;1.60;;;20.70;63.10;;;;;;4963079;28;95741;-64
2022/03/10 10:08:09;;;;;;;5.95;1.70;;;20.70;63.10;;;;;;4964512;28;95734;-62
2022/03/10 10:10:44;;;;;;;3.83;1.58;;;20.70;62.80;;;;;;4964448;28;95827;-62
2022/03/10 10:13:25;;;;;;;5.70;1.20;;;20.80;62.60;;;;;;4963487;28;95856;-62
2022/03/10 10:15:59;;;;;;;4.88;1.17;;;20.80;62.40;;;;;;4953761;28;95875;-60
2022/03/10 10:18:32;;;;;;;3.10;1.63;;;20.80;62.10;;;;;;4963839;28;95885;-61
2022/03/10 10:21:20;;;;;;;4.95;1.65;;;20.70;61.90;;;;;;4963856;28;95949;-60
2022/03/10 10:23:53;;;;;;;4.45;1.67;;;20.70;61.70;;;;;;4950630;28;95734;-61
2022/03/10 10:26:28;;;;;;;5.18;1.98;;;20.70;62.30;;;;;;4982242;28;96351;-59
2022/03/10 10:29:04;;;;;;;5.65;1.65;;;20.60;62.10;;;;;;4966731;28;95575;-62
2022/03/10 10:31:38;;;;;;;3.92;1.15;;;20.60;62.20;;;;;;4955390;28;96461;-63
2022/03/10 10:34:33;;;;;;;4.55;1.45;;;20.70;62.10;;;;;;4960315;28;95711;-60
2022/03/10 10:37:23;;;;;;;5.93;1.40;;;20.70;61.80;;;;;;4954433;28;97816;-61
2022/03/10 10:39:59;;;;;;;3.70;1.40;;;20.60;61.30;;;;;;4964453;28;95857;-61
2022/03/10 10:42:35;;;;;;;4.55;1.63;;;20.60;61.50;;;;;;4963522;28;96685;-62
2022/03/10 10:45:38;;;;;;;5.15;1.27;;;20.50;61.50;;;;;;4962603;28;96184;-62
2022/03/10 10:48:12;;;;;;;5.10;1.48;;;20.50;61.10;;;;;;4991774;28;95422;-61
2022/03/10 10:50:47;;;;;;;6.93;1.63;;;20.40;61.70;;;;;;4965159;28;95392;-62
2022/03/10 10:53:32;;;;;;;3.38;1.25;;;20.40;61.50;;;;;;4965676;28;95876;-61
2022/03/10 10:56:05;;;;;;;10.25;3.92;;;20.40;61.60;;;;;;4965499;28;95702;-61
2022/03/10 10:58:38;;;;;;;6.97;4.25;;;20.30;61.70;;;;;;4966349;28;95365;-62
2022/03/10 11:01:09;;;;;;;10.13;4.60;;;20.30;62.00;;;;;;4952974;28;95762;-62
2022/03/10 11:03:40;;;;;;;;;;;20.20;61.70;;;;;;4962997;28;96518;-62
2022/03/10 11:06:12;;;;;;;6.20;3.17;;;20.20;62.10;;;;;;4965051;28;96095;-62
2022/03/10 11:08:42;;;;;;;5.88;3.10;;;20.00;61.90;;;;;;4964840;28;95772;-61
2022/03/10 11:11:12;;;;;;;5.63;2.90;;;20.00;62.00;;;;;;4965853;28;95814;-62
2022/03/10 11:13:43;;;;;;;4.43;2.40;;;19.80;62.20;;;;;;4964717;28;97076;-62
2022/03/10 11:16:16;;;;;;;4.82;2.50;;;19.80;62.60;;;;;;4957911;28;98231;-61
2022/03/10 11:18:51;;;;;;;3.45;1.98;;;19.70;62.90;;;;;;4965818;28;97124;-61
2022/03/10 11:22:00;;;;;;;6.50;2.17;;;19.70;62.50;;;;;;4964702;28;95253;-61
2022/03/10 11:24:52;;;;;;;6.30;1.83;;;19.60;62.90;;;;;;4964364;28;95885;-61
2022/03/10 11:27:29;;;;;;;7.20;1.80;;;19.60;62.90;;;;;;4965007;28;95691;-61
2022/03/10 11:30:02;;;;;;;3.72;1.42;;;19.70;63.30;;;;;;4964860;28;95613;-61
2022/03/10 11:32:33;;;;;;;5.00;1.70;;;19.60;63.20;;;;;;4957480;28;96247;-59
2022/03/10 11:35:05;;;;;;;5.53;1.67;;;19.60;63.30;;;;;;4961549;28;96153;-62
2022/03/10 11:37:42;;;;;;;3.72;1.80;;;19.50;63.50;;;;;;4958981;28;95873;-61
2022/03/10 11:40:16;;;;;;;6.50;1.63;;;19.50;63.40;;;;;;4963094;28;95453;-62
2022/03/10 11:43:00;;;;;;;2.55;1.05;;;19.50;63.70;;;;;;4951183;28;96033;-61
2022/03/10 11:45:32;;;;;;;4.93;1.40;;;19.40;63.30;;;;;;4955397;28;96504;-62
2022/03/10 11:48:24;;;;;;;3.55;1.20;;;19.30;63.70;;;;;;4964653;28;95936;-63
2022/03/10 11:50:56;;;;;;;2.20;1.15;;;19.20;63.50;;;;;;4952641;28;95778;-63
2022/03/10 11:53:26;;;;;;;3.45;1.63;;;19.30;65.00;;;;;;4965729;28;95744;-63
2022/03/10 11:55:56;;;;;;;3.25;1.42;;;19.70;65.00;;;;;;4964658;28;96049;-62
2022/03/10 11:58:34;;;;;;;3.70;1.92;;;19.90;64.70;;;;;;4966184;28;95948;-67
2022/03/10 12:01:06;;;;;;;5.15;1.20;;;20.20;64.50;;;;;;4971712;28;95673;-65
2022/03/10 12:03:38;;;;;;;1.98;1.27;;;20.30;64.30;;;;;;4969380;28;95691;-65
2022/03/10 12:06:15;;;;;;;2.70;1.25;;;20.40;64.20;;;;;;4968655;28;96511;-64
2022/03/10 12:09:03;;;;;;;2.72;0.93;;;20.50;64.30;;;;;;4997574;28;96249;-63
2022/03/10 12:11:51;;;;;;;2.33;1.20;;;20.60;64.30;;;;;;4964132;28;96565;-62
2022/03/10 12:14:27;;;;;;;3.45;1.30;;;20.70;64.30;;;;;;4967305;28;95348;-65
2022/03/10 12:16:58;;;;;;;8.10;1.70;;;20.80;64.30;;;;;;4958898;28;96354;-57
2022/03/10 12:19:49;;;;;;;;;;;20.80;63.50;;;;;;4965740;28;95849;-60
2022/03/10 12:22:30;;;;;;;6.65;1.83;;;20.70;63.30;;;;;;4965967;28;96485;-59
2022/03/10 12:25:28;;;;;;;4.72;2.20;;;20.60;63.50;;;;;;4964912;28;98213;-61
2022/03/10 12:27:59;;;;;;;3.75;1.85;;;20.50;63.70;;;;;;4962611;28;95763;-59
2022/03/10 12:30:30;;;;;;;2.35;1.45;;;20.50;64.00;;;;;;4954874;28;95910;-60
2022/03/10 12:33:01;;;;;;;3.30;1.70;;;20.40;64.00;;;;;;4945639;28;97919;-62
2022/03/10 12:35:36;;;;;;;4.32;1.55;;;20.40;64.10;;;;;;4938737;28;96048;-61
2022/03/10 12:38:06;;;;;;;3.15;1.52;;;20.40;64.10;;;;;;4943996;28;96542;-60
2022/03/10 12:40:39;;;;;;;5.13;1.27;;;20.40;64.30;;;;;;4946690;28;95381;-63
2022/03/10 12:43:11;;;;;;;3.38;1.90;;;20.30;64.50;;;;;;4946266;28;95963;-61
2022/03/10 12:45:48;;;;;;;4.18;1.50;;;20.40;64.70;;;;;;4940802;28;95818;-63
2022/03/10 12:48:51;;;;;;;4.05;1.50;;;20.40;64.80;;;;;;4968239;28;96001;-58
2022/03/10 12:51:24;;;;;;;6.93;1.80;;;20.50;65.10;;;;;;4946108;28;96553;-62
2022/03/10 12:53:57;;;;;;;2.95;1.33;;;20.60;60.40;;;;;;4968515;28;95850;-61
2022/03/10 12:56:27;;;;;;;3.88;1.13;;;20.60;65.10;;;;;;4970879;28;95953;-61
2022/03/10 12:58:58;;;;;;;;;;;20.70;65.20;;;;;;4967255;28;95955;-61
2022/03/10 13:01:30;;;;;;;2.43;1.17;;;20.80;65.20;;;;;;4964095;28;96291;-60
2022/03/10 13:04:03;;;;;;;2.03;1.00;;;20.80;65.10;;;;;;4984544;28;95901;-59
2022/03/10 13:06:34;;;;;;;2.80;1.33;;;20.90;65.10;;;;;;4968542;28;95957;-60
2022/03/10 13:09:06;;;;;;;1.67;1.17;;;20.90;65.10;;;;;;4966104;28;97876;-61
2022/03/10 13:11:39;;;;;;;1.65;0.88;;;21.00;65.10;;;;;;4965778;28;96364;-61
2022/03/10 13:14:16;;;;;;;4.28;1.58;;;21.00;65.20;;;;;;4970420;28;95826;-59
2022/03/10 13:16:50;;;;;;;2.40;1.10;;;21.00;65.10;;;;;;4958312;28;95770;-60
2022/03/10 13:19:32;;;;;;;1.38;1.00;;;21.10;65.10;;;;;;4964780;28;96459;-59
2022/03/10 13:22:05;;;;;;;4.05;1.17;;;21.10;64.90;;;;;;4967011;28;95350;-59
2022/03/10 13:24:49;;;;;;;1.50;0.98;;;21.30;60.10;;;;;;4966996;28;95401;-56